Time;durP1;ratioP1;P1;durP2;ratioP2;P2;SDS_P1;SDS_P2;PMS_P1;PMS_P2;Temp;Humidity;BMP_temperature;BMP_pressure;BME280_temperature;BME280_humidity;BME280_pressure;Samples;Min_cycle;Max_cycle;Signal;HPM_P1;HPM_P2
2021/12/14 00:02:25;;;;;;;5.20;2.80;;;;;;;;;;5078751;28;20082;-88
2021/12/14 00:04:51;;;;;;;6.47;4.35;;;;;;;;;;5066479;28;20028;-87
2021/12/14 00:07:18;;;;;;;6.57;4.43;;;;;;;;;;5077670;28;20353;-88
2021/12/14 00:09:45;;;;;;;5.30;3.10;;;;;;;;;;5068057;28;20038;-86
2021/12/14 00:17:26;;;;;;;10.98;5.30;;;;;;;;;;5069711;28;20035;-84
2021/12/14 00:19:55;;;;;;;8.20;4.20;;;;;;;;;;5061343;28;20464;-87
2021/12/14 00:25:32;;;;;;;8.38;4.95;;;;;;;;;;5041789;28;20044;-88
2021/12/14 00:28:05;;;;;;;6.25;3.80;;;;;;;;;;5069516;28;20040;-87
2021/12/14 00:30:33;;;;;;;6.45;3.95;;;;;;;;;;5064938;28;20025;-90
2021/12/14 00:32:59;;;;;;;10.35;5.22;;;;;;;;;;5074893;28;20028;-85
2021/12/14 00:35:25;;;;;;;7.05;3.65;;;;;;;;;;5080371;28;20085;-91
2021/12/14 00:37:54;;;;;;;5.75;3.85;;;;;;;;;;5078528;28;20032;-85
2021/12/14 00:40:28;;;;;;;7.00;4.25;;;;;;;;;;5080792;28;20521;-85
2021/12/14 00:42:56;;;;;;;7.35;3.70;;;;;;;;;;5076024;28;20445;-86
2021/12/14 00:45:23;;;;;;;5.82;3.92;;;;;;;;;;5064214;28;20549;-89
2021/12/14 00:47:50;;;;;;;8.07;4.25;;;;;;;;;;5079916;28;20457;-86
2021/12/14 00:50:18;;;;;;;8.98;4.97;;;;;;;;;;5068186;28;20388;-85
2021/12/14 00:52:44;;;;;;;9.07;3.65;;;;;;;;;;5065179;28;20033;-85
2021/12/14 00:55:13;;;;;;;10.77;4.88;;;;;;;;;;5075135;28;20084;-84
2021/12/14 00:57:39;;;;;;;7.40;5.03;;;;;;;;;;5067068;28;20468;-84
2021/12/14 01:00:08;;;;;;;8.77;3.72;;;;;;;;;;5081603;28;20039;-88
2021/12/14 01:02:34;;;;;;;5.28;3.10;;;;;;;;;;5065337;28;20241;-84
2021/12/14 01:05:05;;;;;;;6.68;4.20;;;;;;;;;;5076250;28;20115;-85
2021/12/14 01:07:31;;;;;;;10.20;4.82;;;;;;;;;;5065847;28;20071;-88
2021/12/14 01:09:59;;;;;;;7.45;3.97;;;;;;;;;;5074892;28;20068;-87
2021/12/14 01:12:39;;;;;;;8.85;4.00;;;;;;;;;;5061599;28;20103;-87
2021/12/14 01:18:01;;;;;;;7.65;4.35;;;;;;;;;;5068772;28;20055;-85
2021/12/14 01:20:37;;;;;;;7.03;4.65;;;;;;;;;;5086822;28;20028;-86
2021/12/14 01:23:14;;;;;;;6.53;4.05;;;;;;;;;;5087216;28;20071;-86
2021/12/14 01:25:42;;;;;;;6.85;3.75;;;;;;;;;;5063002;28;20090;-87
2021/12/14 01:28:15;;;;;;;7.07;4.43;;;;;;;;;;5069458;28;20024;-85
2021/12/14 01:31:08;;;;;;;6.40;3.42;;;;;;;;;;5072794;28;20033;-88
2021/12/14 01:33:36;;;;;;;8.98;4.72;;;;;;;;;;5069479;28;20081;-91
2021/12/14 01:36:09;;;;;;;5.75;3.05;;;;;;;;;;5070339;28;20081;-85
2021/12/14 01:38:45;;;;;;;5.80;3.58;;;;;;;;;;5080641;28;20484;-88
2021/12/14 01:41:13;;;;;;;4.95;3.03;;;;;;;;;;5079457;28;20040;-88
2021/12/14 01:43:39;;;;;;;6.10;3.30;;;;;;;;;;5081506;28;20388;-86
2021/12/14 01:46:13;;;;;;;7.05;4.22;;;;;;;;;;5069426;28;20025;-85
2021/12/14 01:48:40;;;;;;;6.38;4.28;;;;;;;;;;5081039;28;20032;-83
2021/12/14 01:51:08;;;;;;;8.20;5.38;;;;;;;;;;5064958;28;20100;-86
2021/12/14 01:53:36;;;;;;;6.95;4.20;;;;;;;;;;5064113;28;20029;-83
2021/12/14 01:56:08;;;;;;;6.70;4.63;;;;;;;;;;5055321;28;20033;-84
2021/12/14 01:58:45;;;;;;;7.03;4.15;;;;;;;;;;5067270;28;20439;-83
2021/12/14 02:01:21;;;;;;;7.55;4.75;;;;;;;;;;5068490;28;20036;-86
2021/12/14 02:03:50;;;;;;;6.65;3.47;;;;;;;;;;5071003;28;20036;-85
2021/12/14 02:06:19;;;;;;;;;;;;;;;;;;5089731;28;20040;-83
2021/12/14 02:08:45;;;;;;;5.95;3.60;;;;;;;;;;5063460;28;20030;-86
2021/12/14 02:11:11;;;;;;;7.70;4.35;;;;;;;;;;5066720;28;20151;-86
2021/12/14 02:13:41;;;;;;;5.30;3.58;;;;;;;;;;5063614;28;20035;-87
2021/12/14 02:16:08;;;;;;;;;;;;;;;;;;5082072;28;20521;-83
2021/12/14 02:18:34;;;;;;;5.90;4.47;;;;;;;;;;5073503;28;20347;-87
2021/12/14 02:21:06;;;;;;;7.53;4.85;;;;;;;;;;5067405;28;20430;-86
2021/12/14 02:23:35;;;;;;;4.28;2.90;;;;;;;;;;5086237;28;20028;-84
2021/12/14 02:26:05;;;;;;;8.10;4.60;;;;;;;;;;5073224;28;20036;-84
2021/12/14 02:28:31;;;;;;;7.13;4.97;;;;;;;;;;5063725;28;20375;-85
2021/12/14 02:31:00;;;;;;;6.72;4.75;;;;;;;;;;5085504;28;20017;-83
2021/12/14 02:33:32;;;;;;;5.33;3.37;;;;;;;;;;5073450;28;20032;-84
2021/12/14 02:36:00;;;;;;;6.30;4.15;;;;;;;;;;5067681;28;20115;-86
2021/12/14 02:38:26;;;;;;;7.78;3.78;;;;;;;;;;5080388;28;20039;-83
2021/12/14 02:40:57;;;;;;;9.98;4.38;;;;;;;;;;5083199;28;20028;-83
2021/12/14 02:43:54;;;;;;;6.57;3.95;;;;;;;;;;5085490;28;20050;-83
2021/12/14 02:46:25;;;;;;;6.70;4.35;;;;;;;;;;5072712;28;20040;-85
2021/12/14 02:48:55;;;;;;;7.80;4.32;;;;;;;;;;5077561;28;20123;-83
2021/12/14 02:51:34;;;;;;;7.25;4.47;;;;;;;;;;5070998;28;20023;-84
2021/12/14 02:54:07;;;;;;;7.32;3.85;;;;;;;;;;5079454;28;20036;-82
2021/12/14 02:56:35;;;;;;;5.50;3.80;;;;;;;;;;5065308;28;20052;-83
2021/12/14 02:59:10;;;;;;;6.15;3.83;;;;;;;;;;5069709;28;20036;-83
2021/12/14 03:01:37;;;;;;;6.43;4.15;;;;;;;;;;5071306;28;20044;-83
2021/12/14 03:04:05;;;;;;;5.82;3.45;;;;;;;;;;5072590;28;20384;-84
2021/12/14 03:06:36;;;;;;;8.43;4.75;;;;;;;;;;5065778;28;20036;-83
2021/12/14 03:09:15;;;;;;;8.40;4.65;;;;;;;;;;5084792;28;20028;-84
2021/12/14 03:11:41;;;;;;;8.45;4.93;;;;;;;;;;5079244;28;20032;-83
2021/12/14 03:14:08;;;;;;;5.43;3.88;;;;;;;;;;5066026;28;20032;-84
2021/12/14 03:16:36;;;;;;;7.13;4.55;;;;;;;;;;5064437;28;20495;-84
2021/12/14 03:19:06;;;;;;;6.47;4.05;;;;;;;;;;5069872;28;20049;-84
2021/12/14 03:21:35;;;;;;;5.82;3.08;;;;;;;;;;5084777;28;20024;-83
2021/12/14 03:24:06;;;;;;;9.10;4.90;;;;;;;;;;5060974;28;20122;-83
2021/12/14 03:26:34;;;;;;;7.82;4.90;;;;;;;;;;5068136;28;20467;-84
2021/12/14 03:29:09;;;;;;;9.00;4.20;;;;;;;;;;5062747;28;20055;-83
2021/12/14 03:31:39;;;;;;;7.20;4.35;;;;;;;;;;5075975;28;20372;-83
2021/12/14 03:34:17;;;;;;;;;;;;;;;;;;5059811;28;20024;-86
2021/12/14 03:37:14;;;;;;;5.75;3.22;;;;;;;;;;5064942;28;19923;-84
2021/12/14 03:39:44;;;;;;;4.05;3.00;;;;;;;;;;5073098;28;20037;-86
2021/12/14 03:42:09;;;;;;;;;;;;;;;;;;5067176;28;20468;-85
2021/12/14 03:44:40;;;;;;;7.72;5.55;;;;;;;;;;5066584;28;19913;-89
2021/12/14 03:47:29;;;;;;;6.80;3.78;;;;;;;;;;5067205;28;20044;-87
2021/12/14 03:49:58;;;;;;;7.90;5.07;;;;;;;;;;5065810;28;20036;-86
2021/12/14 03:52:29;;;;;;;8.23;4.40;;;;;;;;;;5076288;28;20021;-85
2021/12/14 03:54:55;;;;;;;5.60;3.28;;;;;;;;;;5068803;28;20081;-87
2021/12/14 03:57:21;;;;;;;12.60;5.22;;;;;;;;;;5066642;28;20035;-86
2021/12/14 03:59:47;;;;;;;9.57;5.40;;;;;;;;;;5080227;28;20032;-85
2021/12/14 04:02:16;;;;;;;7.63;4.40;;;;;;;;;;5078482;28;20465;-86
2021/12/14 04:05:04;;;;;;;5.25;3.33;;;;;;;;;;5082679;28;20074;-85
2021/12/14 04:07:31;;;;;;;7.22;4.80;;;;;;;;;;5078264;28;20032;-84
2021/12/14 04:09:57;;;;;;;7.60;4.30;;;;;;;;;;5079730;28;20028;-85
2021/12/14 04:12:23;;;;;;;6.18;4.10;;;;;;;;;;5058180;28;20483;-86
2021/12/14 04:14:52;;;;;;;7.45;4.88;;;;;;;;;;5064984;28;20390;-84
2021/12/14 04:17:19;;;;;;;8.00;4.77;;;;;;;;;;5070992;28;20028;-85
2021/12/14 04:19:45;;;;;;;6.68;4.25;;;;;;;;;;5063720;28;20269;-85
2021/12/14 04:22:20;;;;;;;7.75;4.82;;;;;;;;;;5067906;28;20031;-84
2021/12/14 04:24:49;;;;;;;8.50;5.20;;;;;;;;;;5072069;28;20036;-84
2021/12/14 04:27:19;;;;;;;8.60;5.30;;;;;;;;;;5064774;28;20475;-83
2021/12/14 04:29:45;;;;;;;6.53;4.18;;;;;;;;;;5070186;28;20029;-84
2021/12/14 04:32:14;;;;;;;13.73;6.38;;;;;;;;;;5077157;28;20035;-84
2021/12/14 04:34:40;;;;;;;7.88;4.90;;;;;;;;;;5065274;28;20029;-84
2021/12/14 04:37:06;;;;;;;7.45;4.85;;;;;;;;;;5069393;28;20361;-85
2021/12/14 04:39:42;;;;;;;9.43;5.05;;;;;;;;;;5070754;28;20030;-85
2021/12/14 04:53:24;;;;;;;8.20;5.75;;;;;;;;;;5066799;28;20093;-83
2021/12/14 04:55:54;;;;;;;9.50;5.07;;;;;;;;;;5068971;28;20028;-83
2021/12/14 04:58:32;;;;;;;10.88;5.28;;;;;;;;;;5052899;28;20159;-83
2021/12/14 05:00:59;;;;;;;10.55;5.13;;;;;;;;;;5066990;28;20059;-82
2021/12/14 05:03:51;;;;;;;13.00;5.93;;;;;;;;;;5067149;28;20479;-84
2021/12/14 05:06:20;;;;;;;11.20;6.43;;;;;;;;;;5063808;28;20024;-83
2021/12/14 05:11:18;;;;;;;7.15;4.80;;;;;;;;;;5068847;28;20429;-84
2021/12/14 05:13:59;;;;;;;9.27;5.53;;;;;;;;;;5077436;28;20472;-86
2021/12/14 05:16:28;;;;;;;9.30;5.95;;;;;;;;;;5057859;28;20033;-85
2021/12/14 05:18:59;;;;;;;8.07;5.05;;;;;;;;;;5063022;28;20045;-85
2021/12/14 05:21:37;;;;;;;8.57;5.82;;;;;;;;;;5069970;28;20481;-86
2021/12/14 05:24:06;;;;;;;10.02;6.35;;;;;;;;;;5059843;28;20064;-83
2021/12/14 05:26:32;;;;;;;10.07;6.10;;;;;;;;;;5065487;28;20036;-84
2021/12/14 05:28:58;;;;;;;8.73;5.45;;;;;;;;;;5069746;28;20043;-85
2021/12/14 05:31:24;;;;;;;9.25;5.95;;;;;;;;;;5066665;28;20510;-85
2021/12/14 05:33:50;;;;;;;9.52;5.30;;;;;;;;;;5079329;28;20053;-83
2021/12/14 05:36:18;;;;;;;8.68;4.95;;;;;;;;;;5070520;28;20029;-83
2021/12/14 05:39:05;;;;;;;9.23;5.60;;;;;;;;;;5077535;28;20025;-82
2021/12/14 05:44:24;;;;;;;13.95;7.72;;;;;;;;;;5070562;28;20038;-84
2021/12/14 05:46:52;;;;;;;12.73;6.15;;;;;;;;;;5060854;28;20416;-83
2021/12/14 05:49:39;;;;;;;14.80;7.68;;;;;;;;;;5069977;28;20028;-84
2021/12/14 05:52:25;;;;;;;13.13;7.63;;;;;;;;;;5072285;28;20533;-84
2021/12/14 05:54:54;;;;;;;17.65;9.57;;;;;;;;;;5081217;28;20480;-84
2021/12/14 05:57:25;;;;;;;14.55;8.27;;;;;;;;;;5059891;28;20027;-84
2021/12/14 05:59:52;;;;;;;13.50;7.75;;;;;;;;;;5068650;28;20024;-84
2021/12/14 06:02:19;;;;;;;15.93;8.25;;;;;;;;;;5069507;28;20510;-84
2021/12/14 06:04:50;;;;;;;12.20;7.88;;;;;;;;;;5072025;28;20115;-85
2021/12/14 06:07:18;;;;;;;10.77;6.55;;;;;;;;;;5084100;28;20032;-85
2021/12/14 06:09:49;;;;;;;12.20;6.68;;;;;;;;;;5076587;28;20036;-84
2021/12/14 06:12:19;;;;;;;14.40;7.95;;;;;;;;;;5083463;28;20024;-86
2021/12/14 06:14:59;;;;;;;15.90;8.20;;;;;;;;;;5077289;28;20028;-84
2021/12/14 06:17:31;;;;;;;15.95;7.22;;;;;;;;;;5056327;28;20044;-85
2021/12/14 06:20:24;;;;;;;10.07;6.75;;;;;;;;;;5080147;28;20424;-84
2021/12/14 06:22:53;;;;;;;12.10;7.43;;;;;;;;;;5064001;28;20484;-85
2021/12/14 06:25:24;;;;;;;13.75;7.55;;;;;;;;;;5083954;28;20024;-85
2021/12/14 06:27:50;;;;;;;8.80;6.38;;;;;;;;;;5082485;28;20036;-86
2021/12/14 06:30:20;;;;;;;9.27;6.25;;;;;;;;;;5066620;28;20119;-85
2021/12/14 06:32:52;;;;;;;;;;;;;;;;;;5070039;28;20029;-84
2021/12/14 06:35:29;;;;;;;8.57;4.85;;;;;;;;;;5068201;28;19978;-85
2021/12/14 06:38:24;;;;;;;9.70;5.88;;;;;;;;;;5086695;28;20139;-86
2021/12/14 06:40:59;;;;;;;8.25;5.53;;;;;;;;;;5068198;28;20131;-86
2021/12/14 06:43:39;;;;;;;9.52;5.85;;;;;;;;;;5064612;28;20086;-86
2021/12/14 06:46:26;;;;;;;15.45;8.95;;;;;;;;;;5068209;28;20035;-85
2021/12/14 06:49:00;;;;;;;10.02;5.93;;;;;;;;;;5065156;28;20563;-81
2021/12/14 06:51:31;;;;;;;18.67;9.88;;;;;;;;;;5064094;28;20468;-81
2021/12/14 06:54:02;;;;;;;17.30;9.20;;;;;;;;;;5060185;28;20036;-82
2021/12/14 06:56:30;;;;;;;12.32;7.85;;;;;;;;;;5064092;28;20043;-82
2021/12/14 06:58:59;;;;;;;11.65;7.60;;;;;;;;;;5065146;28;20078;-81
2021/12/14 07:01:38;;;;;;;13.68;7.28;;;;;;;;;;5065630;28;20025;-81
2021/12/14 07:04:10;;;;;;;9.38;5.95;;;;;;;;;;5064683;28;20029;-82
2021/12/14 07:06:53;;;;;;;11.77;7.13;;;;;;;;;;5066784;28;20035;-81
2021/12/14 07:09:22;;;;;;;13.30;8.65;;;;;;;;;;5066466;28;20484;-82
2021/12/14 07:12:07;;;;;;;15.65;9.10;;;;;;;;;;5067674;28;20387;-82
2021/12/14 07:14:38;;;;;;;13.35;8.18;;;;;;;;;;5069752;28;20032;-82
2021/12/14 07:17:29;;;;;;;15.80;8.98;;;;;;;;;;5070400;28;20037;-81
2021/12/14 07:20:15;;;;;;;18.23;9.20;;;;;;;;;;5063068;28;20357;-83
2021/12/14 07:22:46;;;;;;;16.30;8.85;;;;;;;;;;5086871;28;20033;-83
2021/12/14 07:25:26;;;;;;;19.95;11.38;;;;;;;;;;5069241;28;20089;-82
2021/12/14 07:28:00;;;;;;;35.10;18.45;;;;;;;;;;5058418;28;20029;-82
2021/12/14 07:30:34;;;;;;;21.92;12.52;;;;;;;;;;5064015;28;20066;-84
2021/12/14 07:33:02;;;;;;;14.77;8.80;;;;;;;;;;5068342;28;20114;-84
2021/12/14 07:35:32;;;;;;;15.88;9.23;;;;;;;;;;5067430;28;20033;-85
2021/12/14 07:38:20;;;;;;;10.25;8.35;;;;;;;;;;5068428;28;20060;-84
2021/12/14 07:40:58;;;;;;;24.75;12.38;;;;;;;;;;5082076;28;20032;-84
2021/12/14 07:43:31;;;;;;;15.05;9.02;;;;;;;;;;5080398;28;20128;-83
2021/12/14 07:45:58;;;;;;;12.10;7.38;;;;;;;;;;5062276;28;20718;-83
2021/12/14 07:48:41;;;;;;;19.85;11.45;;;;;;;;;;5058302;28;20381;-87
2021/12/14 07:51:08;;;;;;;16.58;10.27;;;;;;;;;;5065676;28;20024;-82
2021/12/14 07:53:43;;;;;;;13.52;8.43;;;;;;;;;;5071191;28;20024;-81
2021/12/14 07:56:23;;;;;;;13.82;8.80;;;;;;;;;;5062840;28;20043;-81
2021/12/14 07:58:48;;;;;;;11.70;7.50;;;;;;;;;;5081393;28;20032;-82
2021/12/14 08:01:14;;;;;;;13.00;9.05;;;;;;;;;;5070679;28;20477;-82
2021/12/14 08:03:40;;;;;;;9.70;6.95;;;;;;;;;;5079491;28;20389;-83
2021/12/14 08:06:09;;;;;;;12.95;7.80;;;;;;;;;;5067454;28;20024;-85
2021/12/14 08:08:48;;;;;;;12.98;8.40;;;;;;;;;;5082474;28;20028;-82
2021/12/14 08:11:49;;;;;;;14.93;10.07;;;;;;;;;;5064162;28;20017;-85
2021/12/14 08:14:24;;;;;;;29.92;10.95;;;;;;;;;;5017189;28;20060;-82
2021/12/14 08:17:08;;;;;;;11.27;6.93;;;;;;;;;;4976924;28;20535;-82
2021/12/14 08:19:57;;;;;;;;;;;;;;;;;;;;;
2021/12/14 08:22:35;;;;;;;12.85;6.80;;;;;;;;;;4973215;28;20043;-80
2021/12/14 08:25:00;;;;;;;15.35;7.63;;;;;;;;;;4983456;28;20101;-80
2021/12/14 08:27:29;;;;;;;12.90;8.13;;;;;;;;;;4983539;28;20446;-81
2021/12/14 08:29:58;;;;;;;16.20;9.23;;;;;;;;;;4987289;28;20050;-80
2021/12/14 08:32:37;;;;;;;19.13;11.52;;;;;;;;;;4978117;28;20124;-82
2021/12/14 08:35:08;;;;;;;31.80;14.53;;;;;;;;;;4976304;28;20046;-81
2021/12/14 08:37:53;;;;;;;30.83;15.70;;;;;;;;;;4979007;28;20261;-80
2021/12/14 08:40:52;;;;;;;23.90;12.95;;;;;;;;;;5037727;28;20032;-83
2021/12/14 08:43:52;;;;;;;16.52;10.05;;;;;;;;;;5038747;28;20203;-81
2021/12/14 08:46:26;;;;;;;17.77;9.10;;;;;;;;;;5043429;28;20555;-82
2021/12/14 08:48:59;;;;;;;14.50;8.48;;;;;;;;;;5058528;28;20036;-82
2021/12/14 08:51:31;;;;;;;15.38;9.00;;;;;;;;;;5062204;28;20044;-81
2021/12/14 08:54:10;;;;;;;19.33;10.70;;;;;;;;;;5065449;28;20557;-81
2021/12/14 08:56:41;;;;;;;15.48;8.70;;;;;;;;;;5053669;28;20039;-80
2021/12/14 08:59:08;;;;;;;15.38;9.40;;;;;;;;;;5070314;28;20037;-82
2021/12/14 09:01:40;;;;;;;14.77;8.90;;;;;;;;;;5068277;28;20033;-82
2021/12/14 09:04:36;;;;;;;17.33;10.95;;;;;;;;;;5069998;28;20115;-83
2021/12/14 09:07:20;;;;;;;21.60;11.27;;;;;;;;;;5057488;28;20025;-83
2021/12/14 09:09:47;;;;;;;24.23;11.55;;;;;;;;;;5082174;28;20019;-82
2021/12/14 09:12:15;;;;;;;20.30;12.05;;;;;;;;;;5064566;28;20468;-82
2021/12/14 09:14:44;;;;;;;25.65;13.02;;;;;;;;;;5067200;28;20085;-82
2021/12/14 09:17:11;;;;;;;25.17;12.93;;;;;;;;;;5068950;28;20023;-81
2021/12/14 09:19:42;;;;;;;24.60;13.48;;;;;;;;;;5070521;28;20128;-83
2021/12/14 09:22:14;;;;;;;22.85;13.65;;;;;;;;;;5068654;28;20395;-82
2021/12/14 09:24:41;;;;;;;21.70;12.27;;;;;;;;;;5058870;28;20434;-85
2021/12/14 09:27:12;;;;;;;22.33;12.85;;;;;;;;;;5084439;28;20107;-83
2021/12/14 09:29:38;;;;;;;23.52;14.50;;;;;;;;;;5060753;28;20457;-81
2021/12/14 09:32:07;;;;;;;22.23;11.65;;;;;;;;;;5064475;28;20075;-81
2021/12/14 09:34:36;;;;;;;22.63;14.63;;;;;;;;;;5074496;28;20056;-80
2021/12/14 09:37:04;;;;;;;23.30;12.20;;;;;;;;;;5077873;28;20032;-82
2021/12/14 09:39:36;;;;;;;18.77;10.90;;;;;;;;;;5083328;28;20033;-81
2021/12/14 09:42:08;;;;;;;18.70;11.18;;;;;;;;;;5062269;28;20047;-82
2021/12/14 09:44:36;;;;;;;15.85;10.25;;;;;;;;;;5082992;28;20036;-80
2021/12/14 09:47:08;;;;;;;20.23;10.40;;;;;;;;;;5069109;28;20387;-80
2021/12/14 09:49:35;;;;;;;16.83;10.18;;;;;;;;;;5076019;28;20090;-80
2021/12/14 09:52:06;;;;;;;19.35;11.18;;;;;;;;;;5064207;28;20024;-80
2021/12/14 09:54:31;;;;;;;15.48;8.77;;;;;;;;;;5068480;28;20082;-80
2021/12/14 09:57:11;;;;;;;18.63;11.82;;;;;;;;;;5067171;28;20028;-80
2021/12/14 09:59:37;;;;;;;15.07;10.93;;;;;;;;;;5066406;28;20500;-81
2021/12/14 10:02:14;;;;;;;16.70;10.18;;;;;;;;;;5062694;28;20071;-80
2021/12/14 10:05:03;;;;;;;18.80;11.27;;;;;;;;;;5063996;28;20472;-80
2021/12/14 10:07:29;;;;;;;19.27;11.52;;;;;;;;;;5067108;28;20032;-81
2021/12/14 10:10:00;;;;;;;15.07;10.45;;;;;;;;;;5070819;28;20391;-80
2021/12/14 10:15:10;;;;;;;24.40;14.57;;;;;;;;;;5066066;28;20035;-80
2021/12/14 10:17:39;;;;;;;16.10;9.52;;;;;;;;;;5070425;28;20483;-80
2021/12/14 10:20:05;;;;;;;16.92;9.70;;;;;;;;;;5067688;28;20488;-81
2021/12/14 10:22:31;;;;;;;17.15;9.90;;;;;;;;;;5068532;28;20035;-80
2021/12/14 10:25:01;;;;;;;21.42;11.43;;;;;;;;;;5064163;28;20016;-82
2021/12/14 10:27:29;;;;;;;14.57;10.07;;;;;;;;;;5072011;28;20481;-80
2021/12/14 10:29:56;;;;;;;17.70;10.27;;;;;;;;;;5066281;28;20036;-80
2021/12/14 10:32:29;;;;;;;21.05;12.75;;;;;;;;;;5078014;28;20057;-80
2021/12/14 10:35:00;;;;;;;18.17;12.88;;;;;;;;;;5060625;28;20076;-80
2021/12/14 10:43:20;;;;;;;24.27;14.73;;;;;;;;;;5065822;28;20500;-81
2021/12/14 10:46:04;;;;;;;31.35;17.58;;;;;;;;;;5086230;28;20032;-80
2021/12/14 10:48:34;;;;;;;27.75;17.15;;;;;;;;;;5066192;28;20040;-81
2021/12/14 10:51:04;;;;;;;39.33;19.23;;;;;;;;;;5066010;28;20510;-80
2021/12/14 10:53:31;;;;;;;49.40;23.77;;;;;;;;;;5077685;28;20039;-80
2021/12/14 10:56:29;;;;;;;28.88;16.30;;;;;;;;;;5063730;28;20024;-80
2021/12/14 10:58:59;;;;;;;31.48;16.90;;;;;;;;;;5063444;28;20399;-81
2021/12/14 11:01:31;;;;;;;35.25;20.05;;;;;;;;;;5070245;28;20107;-81
2021/12/14 11:04:00;;;;;;;45.42;21.92;;;;;;;;;;5070260;28;20028;-79
2021/12/14 11:06:29;;;;;;;30.70;16.80;;;;;;;;;;5067287;28;20056;-80
2021/12/14 11:11:37;;;;;;;32.75;17.38;;;;;;;;;;5069107;28;20056;-79
2021/12/14 11:14:09;;;;;;;30.35;16.50;;;;;;;;;;5069129;28;20438;-79
2021/12/14 11:19:41;;;;;;;42.55;23.38;;;;;;;;;;5062227;28;20067;-80
2021/12/14 11:22:16;;;;;;;31.95;17.95;;;;;;;;;;5070113;28;20025;-80
2021/12/14 11:24:46;;;;;;;30.40;18.85;;;;;;;;;;5068278;28;20040;-81
2021/12/14 11:27:18;;;;;;;31.65;18.02;;;;;;;;;;5060816;28;20099;-81
2021/12/14 11:29:44;;;;;;;35.47;20.00;;;;;;;;;;5063110;28;20054;-81
2021/12/14 11:32:17;;;;;;;30.85;17.52;;;;;;;;;;5059491;28;20028;-79
2021/12/14 11:34:45;;;;;;;29.20;17.02;;;;;;;;;;5061353;28;20024;-80
2021/12/14 11:37:15;;;;;;;32.72;19.60;;;;;;;;;;5082469;28;20039;-79
2021/12/14 11:39:46;;;;;;;31.73;17.85;;;;;;;;;;5082310;28;20040;-81
2021/12/14 11:42:18;;;;;;;39.70;20.83;;;;;;;;;;5057638;28;20032;-79
2021/12/14 11:44:57;;;;;;;31.77;16.40;;;;;;;;;;5068129;28;20032;-80
2021/12/14 11:49:57;;;;;;;38.40;19.08;;;;;;;;;;5066312;28;20035;-80
2021/12/14 11:52:50;;;;;;;37.55;21.42;;;;;;;;;;5067983;28;20029;-80
2021/12/14 11:55:26;;;;;;;39.80;21.77;;;;;;;;;;5066372;28;20032;-79
2021/12/14 11:58:19;;;;;;;26.27;15.05;;;;;;;;;;5067410;28;20123;-79
2021/12/14 12:01:00;;;;;;;50.35;25.67;;;;;;;;;;5064880;28;20103;-80
2021/12/14 12:03:43;;;;;;;26.52;16.25;;;;;;;;;;5079083;28;20029;-80
2021/12/14 12:06:33;;;;;;;28.40;14.95;;;;;;;;;;5065272;28;20033;-79
2021/12/14 12:11:52;;;;;;;31.40;16.50;;;;;;;;;;5064901;28;20120;-80
2021/12/14 12:14:20;;;;;;;23.00;14.63;;;;;;;;;;5057179;28;20531;-81
2021/12/14 12:16:47;;;;;;;22.33;12.40;;;;;;;;;;5067048;28;20035;-80
2021/12/14 12:19:20;;;;;;;32.47;18.02;;;;;;;;;;5066034;28;20103;-81
2021/12/14 12:21:48;;;;;;;31.05;16.52;;;;;;;;;;5078225;28;20412;-80
2021/12/14 12:24:36;;;;;;;27.52;14.30;;;;;;;;;;5067560;28;20028;-80
2021/12/14 12:27:29;;;;;;;42.95;26.10;;;;;;;;;;5065060;28;20042;-80
2021/12/14 12:30:09;;;;;;;5.97;3.78;;;;;;;;;;5060814;28;20550;-80
2021/12/14 12:32:35;;;;;;;27.15;14.80;;;;;;;;;;5059197;28;20383;-81
2021/12/14 12:35:18;;;;;;;37.90;21.50;;;;;;;;;;5076490;28;20024;-81
2021/12/14 12:37:44;;;;;;;23.65;13.70;;;;;;;;;;5078758;28;20039;-80
2021/12/14 12:40:14;;;;;;;23.48;14.65;;;;;;;;;;5062463;28;20029;-80
2021/12/14 12:42:42;;;;;;;32.35;18.67;;;;;;;;;;5051391;28;20071;-81
2021/12/14 12:45:33;;;;;;;29.40;18.48;;;;;;;;;;5064759;28;20029;-82
2021/12/14 12:48:02;;;;;;;20.52;12.00;;;;;;;;;;5067699;28;20029;-80
2021/12/14 12:50:29;;;;;;;28.90;14.70;;;;;;;;;;5084323;28;20032;-80
2021/12/14 12:52:56;;;;;;;28.45;16.80;;;;;;;;;;5063685;28;20114;-79
2021/12/14 12:55:31;;;;;;;32.92;18.45;;;;;;;;;;5083429;28;20020;-79
2021/12/14 12:58:11;;;;;;;41.80;18.70;;;;;;;;;;5052564;28;20110;-80
2021/12/14 13:00:37;;;;;;;42.35;22.70;;;;;;;;;;5076467;28;20468;-81
2021/12/14 13:03:17;;;;;;;39.95;18.25;;;;;;;;;;5063614;28;20029;-80
2021/12/14 13:05:43;;;;;;;;;;;;;;;;;;5069185;28;20032;-80
2021/12/14 13:08:08;;;;;;;35.05;14.80;;;;;;;;;;5072484;28;20014;-83
2021/12/14 13:11:01;;;;;;;23.88;12.23;;;;;;;;;;5066933;28;20029;-82
2021/12/14 13:13:28;;;;;;;26.50;14.90;;;;;;;;;;5070173;28;20039;-83
2021/12/14 13:16:10;;;;;;;34.53;17.40;;;;;;;;;;5067372;28;20522;-82
2021/12/14 13:18:56;;;;;;;34.72;17.30;;;;;;;;;;5060673;28;20052;-82
2021/12/14 13:21:29;;;;;;;29.77;16.65;;;;;;;;;;5062837;28;20043;-82
2021/12/14 13:24:22;;;;;;;29.83;15.55;;;;;;;;;;5073237;28;20032;-81
2021/12/14 13:27:08;;;;;;;32.40;16.88;;;;;;;;;;5078145;28;20029;-81
2021/12/14 13:29:48;;;;;;;33.78;18.98;;;;;;;;;;5067025;28;20036;-80
2021/12/14 13:32:34;;;;;;;38.10;18.52;;;;;;;;;;5070954;28;20055;-81
2021/12/14 13:35:15;;;;;;;35.42;19.08;;;;;;;;;;5072796;28;20028;-81
2021/12/14 13:37:58;;;;;;;56.15;23.05;;;;;;;;;;5067595;28;20040;-83
2021/12/14 13:40:39;;;;;;;52.20;24.23;;;;;;;;;;5069755;28;20625;-82
2021/12/14 13:43:10;;;;;;;53.95;27.63;;;;;;;;;;5071297;28;20398;-82
2021/12/14 13:45:58;;;;;;;45.10;24.08;;;;;;;;;;5068285;28;20458;-82
2021/12/14 13:48:32;;;;;;;45.90;26.33;;;;;;;;;;5067346;28;20032;-82
2021/12/14 13:51:02;;;;;;;25.42;14.20;;;;;;;;;;5069467;28;20036;-81
2021/12/14 13:53:28;;;;;;;25.63;14.35;;;;;;;;;;5072976;28;20059;-82
2021/12/14 13:55:56;;;;;;;24.92;13.35;;;;;;;;;;5072097;28;20067;-82
2021/12/14 13:58:25;;;;;;;30.60;16.83;;;;;;;;;;5064742;28;20066;-82
2021/12/14 14:01:09;;;;;;;41.47;21.75;;;;;;;;;;5067738;28;20031;-82
2021/12/14 14:03:39;;;;;;;31.95;18.48;;;;;;;;;;5064864;28;20025;-84
2021/12/14 14:06:09;;;;;;;30.13;16.65;;;;;;;;;;5080093;28;20029;-81
2021/12/14 14:08:44;;;;;;;22.73;13.88;;;;;;;;;;5062737;28;20033;-82
2021/12/14 14:11:19;;;;;;;37.33;20.23;;;;;;;;;;5069033;28;20062;-82
2021/12/14 14:13:46;;;;;;;35.08;19.52;;;;;;;;;;5067626;28;20067;-82
2021/12/14 14:16:11;;;;;;;33.67;18.95;;;;;;;;;;5068937;28;20452;-82
2021/12/14 14:18:44;;;;;;;36.15;21.67;;;;;;;;;;5067377;28;20135;-82
2021/12/14 14:21:12;;;;;;;32.97;20.10;;;;;;;;;;5060794;28;20024;-80
2021/12/14 14:23:40;;;;;;;26.60;16.77;;;;;;;;;;5070951;28;20044;-83
2021/12/14 14:26:11;;;;;;;38.25;21.65;;;;;;;;;;5065371;28;20024;-83
2021/12/14 14:28:43;;;;;;;27.48;16.10;;;;;;;;;;5069233;28;20029;-82
2021/12/14 14:31:13;;;;;;;27.10;16.25;;;;;;;;;;5068502;28;20024;-82
2021/12/14 14:34:19;;;;;;;33.20;19.70;;;;;;;;;;5083482;28;20032;-82
2021/12/14 14:36:45;;;;;;;34.78;17.65;;;;;;;;;;5056080;28;20075;-82
2021/12/14 14:39:13;;;;;;;27.73;16.55;;;;;;;;;;5072881;28;20074;-82
2021/12/14 14:41:51;;;;;;;31.67;17.73;;;;;;;;;;5067808;28;20078;-83
2021/12/14 14:44:39;;;;;;;30.80;17.98;;;;;;;;;;5070357;28;20024;-82
2021/12/14 14:47:07;;;;;;;33.20;18.95;;;;;;;;;;5071177;28;20025;-84
2021/12/14 14:49:33;;;;;;;48.03;25.85;;;;;;;;;;5076325;28;20028;-80
2021/12/14 14:52:02;;;;;;;40.55;23.25;;;;;;;;;;5065436;28;20078;-86
2021/12/14 14:54:34;;;;;;;42.92;26.33;;;;;;;;;;5086934;28;20048;-82
2021/12/14 14:57:14;;;;;;;44.10;24.48;;;;;;;;;;5065414;28;20150;-82
2021/12/14 14:59:42;;;;;;;38.25;23.27;;;;;;;;;;5067942;28;20024;-82
2021/12/14 15:02:12;;;;;;;29.92;17.83;;;;;;;;;;5070917;28;20108;-82
2021/12/14 15:05:00;;;;;;;25.88;14.73;;;;;;;;;;5075996;28;20048;-82
2021/12/14 15:08:26;;;;;;;40.35;22.77;;;;;;;;;;5070584;28;20024;-82
2021/12/14 15:11:06;;;;;;;25.20;14.02;;;;;;;;;;5049881;28;20032;-82
2021/12/14 15:13:43;;;;;;;30.65;17.10;;;;;;;;;;5032844;28;20029;-82
2021/12/14 15:16:18;;;;;;;28.60;16.45;;;;;;;;;;5060590;28;20131;-82
2021/12/14 15:18:54;;;;;;;35.50;19.40;;;;;;;;;;5081970;28;20502;-82
2021/12/14 15:21:48;;;;;;;29.67;16.33;;;;;;;;;;5071392;28;20542;-81
2021/12/14 15:24:54;;;;;;;36.92;20.70;;;;;;;;;;5078906;28;20024;-82
2021/12/14 15:27:37;;;;;;;39.25;19.40;;;;;;;;;;5061031;28;20132;-81
2021/12/14 15:30:02;;;;;;;36.20;19.08;;;;;;;;;;5068979;28;20070;-82
2021/12/14 15:32:33;;;;;;;42.40;22.73;;;;;;;;;;5062269;28;20048;-81
2021/12/14 15:35:09;;;;;;;40.92;21.70;;;;;;;;;;5071980;28;20120;-82
2021/12/14 15:38:01;;;;;;;47.42;23.45;;;;;;;;;;5071568;28;20464;-82
2021/12/14 15:40:32;;;;;;;31.25;17.42;;;;;;;;;;5066949;28;20028;-81
2021/12/14 15:42:58;;;;;;;46.00;22.77;;;;;;;;;;5069602;28;20396;-82
2021/12/14 15:45:35;;;;;;;45.92;24.65;;;;;;;;;;5072210;28;20032;-82
2021/12/14 15:48:05;;;;;;;37.63;20.35;;;;;;;;;;5074552;28;20083;-81
2021/12/14 15:50:31;;;;;;;;;;;;;;;;;;5070016;28;20094;-82
2021/12/14 15:53:15;;;;;;;42.72;23.48;;;;;;;;;;5065727;28;19916;-82
2021/12/14 15:55:41;;;;;;;41.70;22.33;;;;;;;;;;5067999;28;20792;-82